NCAR-RAP Real-Time Weather Data

Output produced by METARs form (26 May 2022  07:22 UTC)
found at http://weather.rap.ucar.edu/surface/
 
KORL 260653Z AUTO 13003KT 10SM CLR 24/21 A3011 RMK AO2 SLP197 T02440211
KORL 260553Z AUTO 11006KT 10SM CLR 24/22 A3011 RMK AO2 SLP199 T02440217 10283 20244 58006
KORL 260453Z AUTO 13005KT 10SM CLR 25/22 A3013 RMK AO2 SLP206 T02500217 403330228
KORL 260353Z AUTO 11006KT 10SM CLR 26/22 A3014 RMK AO2 SLP209 T02560217
KORL 260253Z AUTO 12006KT 10SM CLR 26/22 A3013 RMK AO2 SLP206 T02610217 53019
KORL 260153Z 12010KT 10SM CLR 27/22 A3011 RMK AO2 SLP198 T02670217
KORL 260053Z 12011KT 10SM CLR 27/21 A3009 RMK AO2 SLP192 T02720211
KORL 252353Z 11011KT 10SM CLR 28/20 A3008 RMK AO2 SLP187 T02830200 10333 20283 53014
KORL 252253Z 12010KT 10SM CLR 30/20 A3005 RMK AO2 SLP179 T03000200
KORL 252153Z 13013KT 10SM CLR 30/19 A3005 RMK AO2 SLP177 T03000194
KORL 252053Z 11014G20KT 10SM CLR 31/19 A3004 RMK AO2 SLP173 T03060194 56019
KORL 251953Z 11014G20KT 10SM FEW046 32/20 A3005 RMK AO2 SLP179 T03170200
KORL 251853Z 13011KT 10SM FEW048 SCT060 32/20 A3007 RMK AO2 SLP186 T03220200
KORL COR 251753Z 10008G18KT 10SM FEW048 33/21 A3009 RMK AO2 SLP192 T03280206 10328 20250 58008
KORL 251653Z 09008KT 10SM SCT045 SCT060 32/20 A3011 RMK AO2 SLP197 T03170200
KORL 251553Z 14010KT 10SM SCT041 31/21 A3012 RMK AO2 SLP201 T03110206
KORL 251453Z 16012KT 10SM FEW038 31/19 A3012 RMK AO2 SLP200 T03060189 50007
KORL 251353Z 15014KT 10SM FEW030 28/20 A3012 RMK AO2 SLP202 T02830200
KORL 251253Z 15009KT 10SM CLR 27/21 A3011 RMK AO2 SLP199 T02720211
KORL 251153Z 12007KT 10SM SCT032 25/21 A3009 RMK AO2 SLP193 T02500211 10250 20228 53013
KORL 251053Z AUTO 15003KT 10SM FEW030 23/21 A3008 RMK AO2 SLP189 T02330206
KORL 250953Z AUTO 10004KT 10SM CLR 23/21 A3006 RMK AO2 SLP182 T02280206
KORL 250853Z AUTO 00000KT 10SM CLR 23/21 A3005 RMK AO2 SLP179 T02330206 55005
KORL 250753Z AUTO 13005KT 10SM SCT025 24/21 A3004 RMK AO2 SLP175 T02390211
KORL 250724Z AUTO 00000KT 10SM BKN023 24/21 A3005 RMK AO2 T02390206
KORL 250653Z AUTO 00000KT 10SM CLR 24/20 A3005 RMK AO2 SLP178 T02390200
KORL 250619Z AUTO 12005KT 10SM SCT025 24/20 A3006 RMK AO2 T02390200
KORL 250553Z AUTO 13004KT 10SM BKN023 24/21 A3007 RMK AO2 SLP184 T02440206 10283 20244 58004
KORL 250525Z AUTO 13005KT 10SM BKN023 24/20 A3008 RMK AO2 T02440200
KORL 250453Z AUTO 12004KT 10SM CLR 24/20 A3009 RMK AO2 SLP191 T02440200 403390244
KORL 250353Z AUTO 13005KT 10SM CLR 25/20 A3009 RMK AO2 SLP192 T02500200
KORL 250253Z AUTO 12007KT 10SM CLR 26/19 A3008 RMK AO2 SLP188 T02560194 53017
KORL 250153Z 11007KT 10SM CLR 26/19 A3007 RMK AO2 SLP183 T02610194
KORL 250053Z 11007KT 10SM CLR 27/19 A3004 RMK AO2 SLP176 T02670189
KORL 242353Z 11011KT 10SM CLR 28/19 A3003 RMK AO2 SLP171 T02830189 10339 20283 53006
KORL 242253Z 11012KT 10SM CLR 30/19 A3002 RMK AO2 SLP167 T03000189
KORL 242153Z 10012KT 10SM CLR 31/19 A3002 RMK AO2 SLP166 T03110189
KORL 242053Z 12012G20KT 10SM CLR 32/19 A3001 RMK AO2 SLP165 T03220189 56015
KORL 241953Z 10011KT 10SM SCT055 33/19 A3002 RMK AO2 SLP166 T03330194
KORL 241853Z 14009KT 10SM SCT055 32/19 A3004 RMK AO2 SLP173 T03220189
KORL 241753Z 18009KT 10SM FEW050 32/21 A3006 RMK AO2 SLP180 T03220206 10328 20261 58011
KORL 241653Z 13009KT 10SM FEW044 SCT055 32/21 A3007 RMK AO2 SLP185 T03220206
KORL 241553Z 17008KT 10SM BKN037 BKN049 31/21 A3008 RMK AO2 SLP186 T03060206
KORL 241453Z 16010KT 10SM SCT031 BKN060 30/21 A3009 RMK AO2 SLP191 T03000211 51014
KORL 241427Z 14008KT 10SM SCT029 BKN055 29/21 A3009 RMK AO2 T02940211
KORL 241415Z 15011KT 10SM BKN029 BKN034 BKN055 29/21 A3008 RMK AO2 T02890211
KORL 241353Z 19008KT 10SM SCT027 SCT033 29/22 A3008 RMK AO2 SLP188 T02940217
KORL 241253Z 17011KT 10SM CLR 28/22 A3006 RMK AO2 SLP182 T02780217
KORL 241153Z 16009KT 10SM CLR 26/22 A3005 RMK AO2 SLP177 T02610222 10261 20244 53006
KORL 241053Z 15005KT 10SM CLR 25/22 A3004 RMK AO2 SLP174 T02500222
KORL 240953Z AUTO 14006KT 10SM CLR 24/22 A3002 RMK AO2 SLP168 T02440217
KORL 240853Z AUTO 14004KT 10SM CLR 24/22 A3003 RMK AO2 SLP171 T02440217 56016
KORL 240753Z AUTO 16004KT 10SM CLR 26/22 A3004 RMK AO2 SLP173 T02560217